Forside
METAR-TAF:

METAR-TAF

Lufthavne :

Cairo International Airport

Kairo, Egypten

Breddekreds: 30-08N, længdekreds: 031-24E, højde: 64 m

Aktuelle vejr

Denne rapport blev lavet for 31 minutter siden, kl. 17:00 UTC
Vind 9 kt fra nord
Temperatur 26°C
Fugtighed 54%
Tryk 1016 hPa
Sigt: 6000 m

METAR: HECA 161700Z 36009KT 6000 NSC 26/16 Q1016

Tid: 19:31 (17:31 UTC)

Vejrudsigter

Denne rapport blev lavet for 6 timer og 31 minutter siden, kl. 11:00 UTC
Foreløbig gælder fra 16 på 12 UTC til 17 på 18 UTC
Vind 10 kt fra nordvest
Sigt 10 km eller mere
Spredte skyer i en højde af 2500 ft
Midlertidig
fra 17 på 00 UTC til 17 på 08 UTC
Vind 3 kt fra varierende retninger
Sigt: 3000 m
tåge/dis

TAF: HECA 161100Z 1612/1718 32010KT 9999 SCT025 TEMPO 1700/1708 VRB03KT 3000 HZ NSC

Vejrobservationer og prognoser fra mere end 4000 lufthavne (METAR og TAF).

De gule og røde prikker repræsenterer de meteorologiske stationer.

Flyt musen over at se navnet på stationen.

Så klik over at se vejr observationer og prognoser.

At skifte det kort: Klik på de grønne knapper med et sort kors for at zoome ind; på den grønne knap med en bindestreg for at zoome ud; eller på de grønne pile for tilstødende kort.


METAR-TAF: